Time;durP1;ratioP1;P1;durP2;ratioP2;P2;SDS_P1;SDS_P2;PMS_P1;PMS_P2;Temp;Humidity;BMP_temperature;BMP_pressure;BME280_temperature;BME280_humidity;BME280_pressure;Samples;Min_cycle;Max_cycle;Signal;HPM_P1;HPM_P2
2023/10/28 00:00:17;;;;;;;;;5.00;4.80;;;;;15.43;100.00;96925.75;6212088;28;96531;-70
2023/10/28 00:03:20;;;;;;;;;5.20;5.00;;;;;15.43;100.00;96928.47;6212142;28;96576;-69
2023/10/28 00:06:24;;;;;;;;;3.00;3.00;;;;;15.43;100.00;96928.47;6209896;28;96579;-69
2023/10/28 00:09:27;;;;;;;;;5.60;5.00;;;;;15.46;100.00;96929.75;6212507;28;96976;-71
2023/10/28 00:12:31;;;;;;;;;3.50;3.50;;;;;15.52;100.00;96939.47;6214244;28;96462;-70
2023/10/28 00:15:34;;;;;;;;;4.25;4.25;;;;;15.57;100.00;96939.34;6213582;28;97693;-70
2023/10/28 00:18:37;;;;;;;;;3.00;3.00;;;;;15.66;100.00;96940.28;6212956;28;96290;-70
2023/10/28 00:21:40;;;;;;;;;4.00;4.00;;;;;15.59;100.00;96948.81;6213453;28;96950;-70
2023/10/28 00:24:44;;;;;;;;;4.00;4.00;;;;;15.56;100.00;96946.69;6211850;28;96886;-70
2023/10/28 00:27:49;;;;;;;;;3.00;3.00;;;;;15.60;100.00;96955.03;6214111;28;97085;-70
2023/10/28 00:30:52;;;;;;;;;3.40;3.40;;;;;15.58;100.00;96952.66;6213396;28;96330;-71
2023/10/28 00:33:55;;;;;;;;;3.00;3.00;;;;;15.58;100.00;96957.28;6212928;28;96337;-70
2023/10/28 00:36:58;;;;;;;;;5.00;4.00;;;;;15.58;100.00;96952.66;6214044;28;96483;-70
2023/10/28 00:40:05;;;;;;;;;4.00;4.00;;;;;15.56;100.00;96951.31;6213349;28;96714;-70
2023/10/28 00:43:10;;;;;;;;;4.00;4.00;;;;;15.35;100.00;96931.84;6213304;28;96304;-70
2023/10/28 00:46:13;;;;;;;;;4.00;4.00;;;;;15.51;100.00;96944.06;6212500;28;96965;-70
2023/10/28 00:49:16;;;;;;;;;4.00;4.00;;;;;15.54;100.00;96945.41;6213686;28;96355;-70
2023/10/28 00:52:21;;;;;;;;;4.00;3.00;;;;;15.53;100.00;96947.31;6213853;28;96358;-70
2023/10/28 00:55:27;;;;;;;;;2.40;2.40;;;;;15.35;100.00;96950.84;6212946;28;96299;-70
2023/10/28 00:58:33;;;;;;;;;2.00;2.00;;;;;15.43;100.00;96954.81;6194248;28;96727;-70
2023/10/28 01:01:38;;;;;;;;;3.20;3.00;;;;;15.28;100.00;96964.03;6214158;28;96480;-63
2023/10/28 01:04:41;;;;;;;;;4.00;4.00;;;;;15.23;100.00;96969.53;6234694;22;97560;-66
2023/10/28 01:07:46;;;;;;;;;3.00;3.00;;;;;15.29;100.00;96965.66;6238264;28;96836;-66
2023/10/28 01:10:49;;;;;;;;;5.00;5.00;;;;;15.41;100.00;96974.09;6238244;27;96986;-66
2023/10/28 01:13:54;;;;;;;;;4.00;4.00;;;;;15.36;100.00;96962.53;6236756;28;96594;-66
2023/10/28 01:16:57;;;;;;;;;3.00;3.00;;;;;15.35;100.00;96975.28;6237051;28;97264;-66
2023/10/28 01:20:00;;;;;;;;;5.00;4.00;;;;;15.31;100.00;96979.72;6220086;28;98579;-66
2023/10/28 01:23:05;;;;;;;;;2.40;2.40;;;;;15.25;100.00;96975.47;6239024;28;96441;-66
2023/10/28 01:26:09;;;;;;;;;4.25;4.00;;;;;15.26;100.00;96979.00;6237069;28;96685;-66
2023/10/28 01:29:12;;;;;;;;;4.00;4.00;;;;;15.17;100.00;96966.09;6219909;28;97719;-66
2023/10/28 01:32:15;;;;;;;;;4.60;4.00;;;;;15.18;100.00;96996.78;6212410;28;98563;-67
2023/10/28 01:35:19;;;;;;;;;4.00;4.00;;;;;15.27;100.00;96999.59;6214458;28;96425;-65
2023/10/28 01:38:24;;;;;;;;;2.00;2.00;;;;;15.18;100.00;97008.44;6213923;28;96340;-65
2023/10/28 01:41:27;;;;;;;;;4.00;3.40;;;;;15.28;100.00;97006.66;6234583;28;96862;-66
2023/10/28 01:44:34;;;;;;;;;3.00;3.00;;;;;15.28;100.00;97010.19;6236238;28;96687;-65
2023/10/28 01:47:38;;;;;;;;;3.00;3.00;;;;;15.29;100.00;97017.22;6218454;28;97540;-65
2023/10/28 01:50:41;;;;;;;;;3.00;3.00;;;;;15.26;100.00;97031.38;6221786;28;96600;-66
2023/10/28 01:53:46;;;;;;;;;4.00;4.00;;;;;15.31;100.00;97031.28;6223007;28;96485;-66
2023/10/28 01:56:49;;;;;;;;;4.00;3.60;;;;;15.35;100.00;97037.72;6194764;28;96738;-66
2023/10/28 02:00:04;;;;;;;;;3.00;3.00;;;;;15.36;100.00;97052.13;6211572;28;96894;-66
2023/10/28 02:03:12;;;;;;;;;4.00;3.00;;;;;15.26;100.00;97046.84;6212408;28;96700;-65
2023/10/28 02:06:15;;;;;;;;;4.40;4.00;;;;;15.23;100.00;97053.69;6225852;28;96333;-65
2023/10/28 02:09:20;;;;;;;;;3.40;3.40;;;;;15.17;100.00;97060.28;6218758;28;96767;-66
2023/10/28 02:12:24;;;;;;;;;3.25;3.25;;;;;15.16;100.00;97055.97;6212256;28;96820;-63
2023/10/28 02:15:29;;;;;;;;;4.00;3.40;;;;;15.23;100.00;97055.59;6195530;28;96728;-63
2023/10/28 02:18:33;;;;;;;;;3.00;3.00;;;;;15.23;100.00;97061.84;6234562;27;96784;-64
2023/10/28 02:21:36;;;;;;;;;2.00;2.00;;;;;15.27;100.00;97065.56;6212568;28;96296;-63
2023/10/28 02:24:42;;;;;;;;;3.00;3.00;;;;;15.23;100.00;97067.25;6213194;28;97509;-63
2023/10/28 02:27:46;;;;;;;;;2.20;2.20;;;;;15.24;100.00;97073.50;6213363;28;96599;-62
2023/10/28 02:30:49;;;;;;;;;4.00;4.00;;;;;15.13;100.00;97084.50;6228472;28;97143;-62
2023/10/28 02:33:52;;;;;;;;;2.00;2.00;;;;;15.17;100.00;97068.44;6224186;28;97082;-63
2023/10/28 02:36:55;;;;;;;;;3.00;2.00;;;;;15.27;100.00;97075.63;6232923;28;96272;-62
2023/10/28 02:40:00;;;;;;;;;2.75;2.75;;;;;15.20;100.00;97080.63;6219913;28;96690;-64
2023/10/28 02:43:03;;;;;;;;;5.00;5.00;;;;;15.18;100.00;97070.88;6210469;28;96373;-62
2023/10/28 02:46:06;;;;;;;;;3.40;2.40;;;;;15.24;100.00;97074.31;6213309;28;97614;-63
2023/10/28 02:49:09;;;;;;;;;4.00;4.00;;;;;15.35;100.00;97085.78;6213080;28;96532;-62
2023/10/28 02:52:13;;;;;;;;;3.00;3.00;;;;;15.43;100.00;97087.84;6226034;28;97913;-63
2023/10/28 02:55:18;;;;;;;;;4.20;4.00;;;;;15.52;100.00;97091.53;6208126;28;98496;-62
2023/10/28 02:58:21;;;;;;;;;3.60;3.60;;;;;15.59;100.00;97091.94;6229846;27;97043;-62
2023/10/28 03:01:25;;;;;;;;;4.20;4.20;;;;;15.66;100.00;97086.13;6216722;28;96271;-63
2023/10/28 03:04:28;;;;;;;;;4.00;4.00;;;;;15.65;100.00;97079.09;6214135;28;96860;-62
2023/10/28 03:07:31;;;;;;;;;4.00;4.00;;;;;15.64;100.00;97088.38;6214650;28;97111;-63
2023/10/28 03:10:38;;;;;;;;;4.00;4.00;;;;;15.66;100.00;97088.84;6212678;28;96377;-63
2023/10/28 03:13:41;;;;;;;;;3.00;3.00;;;;;15.66;100.00;97080.69;6215068;28;97582;-62
2023/10/28 03:16:46;;;;;;;;;3.40;2.40;;;;;15.60;100.00;97083.50;6218772;28;96341;-63
2023/10/28 03:19:49;;;;;;;;;3.00;3.00;;;;;15.65;100.00;97081.81;6236356;28;96503;-63
2023/10/28 03:22:52;;;;;;;;;3.60;3.60;;;;;15.70;100.00;97079.81;6216305;28;96447;-63
2023/10/28 03:25:56;;;;;;;;;2.00;2.00;;;;;15.71;100.00;97089.56;6215639;28;96387;-63
2023/10/28 03:29:00;;;;;;;;;2.00;2.00;;;;;15.73;100.00;97089.28;6215561;28;96335;-62
2023/10/28 03:32:03;;;;;;;;;4.00;4.00;;;;;15.71;100.00;97095.00;6222339;28;96450;-63
2023/10/28 03:35:08;;;;;;;;;3.00;3.00;;;;;15.75;100.00;97096.03;6221359;28;96398;-63
2023/10/28 03:38:11;;;;;;;;;4.00;4.00;;;;;15.76;100.00;97099.53;6217395;28;96365;-66
2023/10/28 03:41:16;;;;;;;;;5.00;5.00;;;;;15.83;100.00;97097.25;6223088;28;97782;-64
2023/10/28 03:44:19;;;;;;;;;5.00;5.00;;;;;15.89;100.00;97101.47;6226917;28;96544;-63
2023/10/28 03:47:22;;;;;;;;;3.00;3.00;;;;;15.84;100.00;97109.72;6213417;28;99151;-63
2023/10/28 03:50:26;;;;;;;;;5.40;5.40;;;;;15.74;100.00;97107.19;6230414;28;98044;-63
2023/10/28 03:53:29;;;;;;;;;3.40;3.40;;;;;15.77;100.00;97107.41;6214633;28;96522;-64
2023/10/28 03:56:33;;;;;;;;;4.40;4.40;;;;;15.73;100.00;97111.84;6214924;28;96508;-63
2023/10/28 03:59:36;;;;;;;;;4.00;4.00;;;;;15.71;100.00;97100.44;6214828;28;96649;-64
2023/10/28 04:02:40;;;;;;;;;4.00;3.00;;;;;15.73;100.00;97103.69;6213637;28;96778;-64
2023/10/28 04:05:43;;;;;;;;;6.00;6.00;;;;;15.72;100.00;97095.81;6196115;28;96366;-63
2023/10/28 04:08:46;;;;;;;;;6.00;6.00;;;;;15.68;100.00;97098.34;6213920;28;96236;-63
2023/10/28 04:11:50;;;;;;;;;6.00;6.00;;;;;15.58;100.00;97099.31;6222096;28;96640;-63
2023/10/28 04:14:53;;;;;;;;;3.00;3.00;;;;;15.62;100.00;97099.50;6224960;28;96476;-64
2023/10/28 04:17:56;;;;;;;;;3.00;3.00;;;;;15.54;100.00;97100.97;6238900;28;96381;-64
2023/10/28 04:21:00;;;;;;;;;3.00;3.00;;;;;15.45;100.00;97096.50;6217468;28;98199;-63
2023/10/28 04:24:04;;;;;;;;;2.00;2.00;;;;;15.39;100.00;97106.66;6226149;28;96369;-63
2023/10/28 04:27:09;;;;;;;;;4.00;4.00;;;;;15.33;100.00;97113.25;6217803;28;97321;-62
2023/10/28 04:30:13;;;;;;;;;3.00;3.00;;;;;15.25;100.00;97116.63;6239927;27;96296;-63
2023/10/28 04:33:17;;;;;;;;;3.60;3.00;;;;;15.08;100.00;97113.63;6222802;28;97561;-63
2023/10/28 04:36:20;;;;;;;;;3.00;3.00;;;;;14.95;100.00;97120.59;6220097;28;96590;-63
2023/10/28 04:39:23;;;;;;;;;3.00;3.00;;;;;14.88;100.00;97133.72;6237964;28;96408;-63
2023/10/28 04:42:28;;;;;;;;;3.50;3.00;;;;;14.77;100.00;97142.25;6220048;28;96675;-63
2023/10/28 04:45:31;;;;;;;;;3.00;3.00;;;;;14.63;100.00;97137.56;6226195;28;96211;-63
2023/10/28 04:48:34;;;;;;;;;3.00;3.00;;;;;14.54;100.00;97144.72;6221219;28;96732;-63
2023/10/28 04:51:37;;;;;;;;;1.40;1.40;;;;;14.45;100.00;97145.66;6227793;28;96310;-63
2023/10/28 04:54:41;;;;;;;;;4.60;4.60;;;;;14.41;100.00;97150.84;6213144;28;96476;-63
2023/10/28 04:57:45;;;;;;;;;4.00;3.00;;;;;14.38;100.00;97162.25;6213775;28;96387;-64
2023/10/28 05:00:48;;;;;;;;;3.00;3.00;;;;;14.27;100.00;97145.25;6213694;28;96218;-63
2023/10/28 05:03:51;;;;;;;;;5.00;4.00;;;;;14.33;100.00;97163.06;6220647;28;96683;-63
2023/10/28 05:06:55;;;;;;;;;4.60;4.00;;;;;14.27;100.00;97164.22;6220844;28;98904;-63
2023/10/28 05:09:58;;;;;;;;;4.00;3.40;;;;;14.19;100.00;97162.16;6237698;28;96239;-64
2023/10/28 05:13:03;;;;;;;;;2.80;2.80;;;;;14.19;100.00;97178.41;6214789;28;96361;-63
2023/10/28 05:16:06;;;;;;;;;4.60;4.00;;;;;14.16;100.00;97181.69;6213112;28;96480;-62
2023/10/28 05:19:09;;;;;;;;;4.00;4.00;;;;;14.12;100.00;97179.84;6213202;28;96330;-63
2023/10/28 05:22:13;;;;;;;;;3.00;3.00;;;;;14.07;100.00;97182.59;6216418;28;96289;-62
2023/10/28 05:25:16;;;;;;;;;4.00;3.40;;;;;14.05;100.00;97182.88;6219295;28;96333;-63
2023/10/28 05:28:21;;;;;;;;;4.40;4.00;;;;;14.08;100.00;97187.72;6213842;28;97027;-63
2023/10/28 05:31:25;;;;;;;;;3.00;3.00;;;;;14.05;100.00;97182.06;6234911;28;96598;-63
2023/10/28 05:34:28;;;;;;;;;2.60;2.60;;;;;14.03;100.00;97186.94;6238466;28;96248;-62
2023/10/28 05:37:31;;;;;;;;;4.00;3.00;;;;;14.05;100.00;97187.50;6238464;28;97058;-63
2023/10/28 05:40:34;;;;;;;;;9.40;9.40;;;;;14.07;100.00;97194.25;6218786;28;96405;-66
2023/10/28 05:43:38;;;;;;;;;5.00;5.00;;;;;14.12;100.00;97196.09;6213189;28;97680;-66
2023/10/28 05:46:42;;;;;;;;;18.60;18.40;;;;;14.23;100.00;97200.31;6211318;28;96562;-65
2023/10/28 05:49:45;;;;;;;;;16.00;16.00;;;;;14.32;100.00;97198.59;6209851;28;98551;-66
2023/10/28 05:52:48;;;;;;;;;8.00;8.00;;;;;14.43;100.00;97193.91;6210692;28;96652;-66
2023/10/28 05:55:52;;;;;;;;;14.00;14.00;;;;;14.51;100.00;97201.44;6213433;28;96570;-66
2023/10/28 05:58:58;;;;;;;;;29.00;27.50;;;;;14.76;100.00;97206.56;6222462;28;96715;-65
2023/10/28 06:02:03;;;;;;;;;29.33;28.00;;;;;15.34;100.00;97212.63;6227452;28;96665;-66
2023/10/28 06:05:09;;;;;;;;;23.00;21.00;;;;;16.02;100.00;97202.09;6223822;27;96733;-67
2023/10/28 06:08:13;;;;;;;;;28.40;27.40;;;;;17.24;100.00;97218.84;6220794;27;97076;-67
2023/10/28 06:11:17;;;;;;;;;18.75;16.75;;;;;19.00;100.00;97212.88;6226286;28;96524;-68
2023/10/28 06:14:21;;;;;;;;;12.00;11.00;;;;;21.11;100.00;97229.00;6225859;28;97980;-67
2023/10/28 06:17:25;;;;;;;;;9.00;8.40;;;;;22.80;100.00;97239.31;6220952;28;96557;-68
2023/10/28 06:20:30;;;;;;;;;10.80;9.80;;;;;24.34;100.00;97253.97;6230827;28;96628;-68
2023/10/28 06:23:33;;;;;;;;;8.75;8.75;;;;;25.62;100.00;97260.88;6237101;28;96438;-68
2023/10/28 06:26:36;;;;;;;;;7.60;7.40;;;;;26.82;100.00;97263.47;6235633;27;97391;-68
2023/10/28 06:29:41;;;;;;;;;7.00;7.00;;;;;27.96;93.49;97266.94;6228158;28;96282;-66
2023/10/28 06:32:44;;;;;;;;;5.00;5.00;;;;;28.85;85.35;97263.34;6226775;28;96228;-69
2023/10/28 06:35:47;;;;;;;;;5.40;4.00;;;;;29.65;82.02;97267.25;6220457;28;99974;-67
2023/10/28 06:38:50;;;;;;;;;6.40;6.40;;;;;30.42;75.14;97270.91;6220180;28;98422;-67
2023/10/28 06:41:53;;;;;;;;;3.00;3.00;;;;;31.19;70.20;97270.34;6222966;28;96768;-67
2023/10/28 06:45:01;;;;;;;;;2.60;2.60;;;;;31.96;65.67;97265.97;6214974;28;98386;-67
2023/10/28 06:48:04;;;;;;;;;2.40;2.40;;;;;32.74;62.14;97273.34;6228753;28;97076;-68
2023/10/28 06:51:08;;;;;;;;;4.00;3.40;;;;;33.15;53.29;97277.06;6218086;28;96850;-66
2023/10/28 06:54:11;;;;;;;;;4.00;2.40;;;;;33.61;54.67;97282.34;6233580;28;97051;-66
2023/10/28 06:57:15;;;;;;;;;3.20;3.20;;;;;34.04;52.06;97293.16;6236315;28;96859;-66
2023/10/28 07:00:24;;;;;;;;;4.00;3.60;;;;;34.31;50.52;97288.47;6221997;28;96721;-66
2023/10/28 07:03:27;;;;;;;;;1.00;1.00;;;;;34.89;46.35;97297.81;6224396;28;97904;-66
2023/10/28 07:06:31;;;;;;;;;3.00;3.00;;;;;35.54;43.97;97288.03;6209020;28;96660;-66
2023/10/28 07:09:35;;;;;;;;;4.00;3.40;;;;;36.17;40.03;97302.22;6216429;28;96650;-66
2023/10/28 07:12:38;;;;;;;;;5.00;5.00;;;;;36.79;37.51;97310.63;6230428;28;96423;-66
2023/10/28 07:15:44;;;;;;;;;2.20;2.20;;;;;37.44;35.83;97322.03;6207400;28;97054;-67
2023/10/28 07:18:48;;;;;;;;;3.00;3.00;;;;;37.97;33.36;97317.97;6219787;28;96394;-66
2023/10/28 07:21:51;;;;;;;;;2.40;2.40;;;;;38.15;32.70;97326.75;6224538;28;97363;-66
2023/10/28 07:24:54;;;;;;;;;3.00;3.00;;;;;38.37;31.73;97321.31;6223022;28;96611;-68
2023/10/28 07:27:57;;;;;;;;;5.00;5.00;;;;;38.64;30.86;97342.75;6236158;28;96413;-68
2023/10/28 07:31:02;;;;;;;;;2.20;2.20;;;;;39.17;30.93;97352.50;6235394;28;96292;-68
2023/10/28 07:34:07;;;;;;;;;3.40;3.00;;;;;39.31;29.24;97349.25;6238196;27;97598;-68
2023/10/28 07:37:10;;;;;;;;;3.00;3.00;;;;;39.45;27.50;97351.63;6215942;28;96839;-68
2023/10/28 07:40:13;;;;;;;;;5.00;5.00;;;;;39.87;27.82;97360.81;6221764;28;96984;-68
2023/10/28 07:43:17;;;;;;;;;4.00;4.00;;;;;40.18;26.83;97369.41;6224777;27;98655;-68
2023/10/28 07:46:22;;;;;;;;;3.00;3.00;;;;;40.57;27.46;97374.53;6236005;27;96615;-67
2023/10/28 07:49:25;;;;;;;;;2.40;2.00;;;;;40.85;26.66;97366.31;6212961;28;96867;-67
2023/10/28 07:52:28;;;;;;;;;3.00;3.00;;;;;40.81;26.41;97369.25;6216358;28;96902;-66
2023/10/28 07:55:31;;;;;;;;;3.00;3.00;;;;;40.35;26.42;97384.22;6211374;28;96251;-66
2023/10/28 07:58:34;;;;;;;;;3.00;2.00;;;;;39.87;26.37;97374.91;6209731;28;96284;-66
2023/10/28 08:01:39;;;;;;;;;2.40;2.00;;;;;39.41;26.45;97390.44;6218257;28;97184;-66
2023/10/28 08:04:43;;;;;;;;;3.00;3.00;;;;;39.97;26.59;97387.88;6233896;28;96390;-65
2023/10/28 08:07:47;;;;;;;;;4.00;3.60;;;;;40.10;26.70;97379.38;6234735;28;98074;-65
2023/10/28 08:10:50;;;;;;;;;3.00;3.00;;;;;39.99;26.20;97388.22;6225541;27;96646;-65
2023/10/28 08:13:54;;;;;;;;;4.00;3.00;;;;;40.49;25.99;97400.66;6224477;28;96785;-65
2023/10/28 08:16:58;;;;;;;;;1.50;1.50;;;;;40.09;24.88;97395.53;6214934;28;96760;-65
2023/10/28 08:20:03;;;;;;;;;1.00;1.00;;;;;37.42;29.40;97391.19;6213952;28;96651;-65
2023/10/28 08:23:07;;;;;;;;;1.00;1.00;;;;;34.32;36.45;97396.38;6219833;28;98732;-64
2023/10/28 08:26:11;;;;;;;;;1.00;1.00;;;;;31.88;45.03;97384.22;6229961;28;96517;-64
2023/10/28 08:29:14;;;;;;;;;1.00;1.00;;;;;30.23;55.87;97401.84;6222907;28;98923;-64
2023/10/28 08:32:19;;;;;;;;;2.00;2.00;;;;;29.33;62.45;97402.22;6230708;28;96551;-62
2023/10/28 08:35:28;;;;;;;;;2.00;2.00;;;;;29.98;60.99;97407.22;6225462;28;96564;-64
2023/10/28 08:38:33;;;;;;;;;1.00;1.00;;;;;29.81;60.85;97403.06;6223836;28;96225;-64
2023/10/28 08:41:36;;;;;;;;;1.20;1.20;;;;;29.07;64.22;97408.66;6216371;28;97126;-65
2023/10/28 08:44:41;;;;;;;;;2.60;2.60;;;;;28.51;67.33;97424.50;6237380;28;96503;-63
2023/10/28 08:47:48;;;;;;;;;1.80;1.00;;;;;27.82;69.95;97409.94;6232764;28;96484;-64
2023/10/28 08:51:00;;;;;;;;;1.00;1.00;;;;;27.88;73.58;97419.53;6223122;28;96575;-64
2023/10/28 08:54:04;;;;;;;;;1.00;1.00;;;;;29.64;62.94;97429.50;6230332;27;96757;-66
2023/10/28 08:57:08;;;;;;;;;2.00;1.00;;;;;31.10;52.48;97433.38;6216371;28;96709;-65
2023/10/28 09:00:15;;;;;;;;;1.00;1.00;;;;;30.88;53.74;97436.06;6215665;27;96816;-64
2023/10/28 09:03:21;;;;;;;;;2.00;2.00;;;;;31.39;52.93;97424.72;6228835;27;96468;-65
2023/10/28 09:06:24;;;;;;;;;1.00;1.00;;;;;31.66;49.21;97436.38;6216391;27;97872;-64
2023/10/28 09:09:28;;;;;;;;;3.00;3.00;;;;;31.09;51.94;97445.69;6222022;28;96426;-64
2023/10/28 09:12:32;;;;;;;;;3.00;3.00;;;;;31.29;49.19;97445.00;6209535;28;98661;-66
2023/10/28 09:15:35;;;;;;;;;2.50;2.50;;;;;30.08;55.11;97456.53;6233029;28;96716;-66
2023/10/28 09:18:40;;;;;;;;;3.00;3.00;;;;;28.09;62.99;97438.50;6235056;28;96822;-66
2023/10/28 09:21:44;;;;;;;;;2.00;2.00;;;;;26.63;73.50;97446.69;6225066;28;97238;-64
2023/10/28 09:24:47;;;;;;;;;3.00;3.00;;;;;25.24;83.51;97449.06;6201778;28;98499;-65
2023/10/28 09:27:54;;;;;;;;;2.60;2.60;;;;;24.46;88.49;97457.78;6230249;28;96676;-65
2023/10/28 09:30:59;;;;;;;;;4.00;4.00;;;;;23.82;93.06;97458.44;6224049;28;98198;-65
2023/10/28 09:34:05;;;;;;;;;4.40;4.40;;;;;23.19;97.72;97446.81;6212631;28;96848;-64
2023/10/28 09:37:08;;;;;;;;;3.40;3.40;;;;;22.79;100.00;97453.97;6229965;28;96713;-64
2023/10/28 09:40:13;;;;;;;;;3.20;3.00;;;;;22.47;100.00;97452.72;6204307;28;98737;-67
2023/10/28 09:43:16;;;;;;;;;4.00;4.00;;;;;22.29;100.00;97438.28;6231316;28;96857;-64
2023/10/28 09:46:21;;;;;;;;;3.00;3.00;;;;;22.44;100.00;97456.94;6228358;28;97164;-65
2023/10/28 09:49:30;;;;;;;;;3.40;3.40;;;;;22.09;100.00;97457.50;6219123;28;99084;-64
2023/10/28 09:52:34;;;;;;;;;1.00;1.00;;;;;21.92;100.00;97450.91;6228491;28;97123;-64
2023/10/28 09:55:41;;;;;;;;;2.00;1.00;;;;;21.56;100.00;97462.31;6224791;28;96726;-64
2023/10/28 09:58:55;;;;;;;;;2.00;2.00;;;;;21.34;100.00;97468.03;6224897;28;96943;-65
2023/10/28 10:02:17;;;;;;;;;4.00;4.00;;;;;21.65;100.00;97453.28;6211421;28;96637;-66
2023/10/28 10:05:28;;;;;;;;;3.75;3.75;;;;;21.86;100.00;97462.38;6212340;27;96891;-64
2023/10/28 10:08:33;;;;;;;;;3.60;3.60;;;;;21.51;100.00;97458.97;6221667;28;96909;-65
2023/10/28 10:11:42;;;;;;;;;2.20;2.20;;;;;21.39;100.00;97467.88;6224295;28;97890;-65
2023/10/28 10:14:47;;;;;;;;;2.50;2.50;;;;;21.24;100.00;97462.09;6237805;27;97032;-65
2023/10/28 10:17:59;;;;;;;;;3.40;3.40;;;;;21.31;100.00;97460.47;6239284;28;96981;-64
2023/10/28 10:21:09;;;;;;;;;2.00;2.00;;;;;21.55;100.00;97466.19;6216224;28;96716;-65
2023/10/28 10:24:12;;;;;;;;;2.00;2.00;;;;;22.48;100.00;97465.28;6214401;28;96733;-65
2023/10/28 10:27:15;;;;;;;;;2.00;2.00;;;;;23.18;99.54;97458.94;6226662;28;96772;-62
2023/10/28 10:30:19;;;;;;;;;2.00;2.00;;;;;23.93;96.26;97458.81;6221419;28;97468;-63
2023/10/28 10:33:26;;;;;;;;;2.00;2.00;;;;;24.74;91.24;97460.59;6226343;28;96579;-62
2023/10/28 10:36:35;;;;;;;;;1.25;1.25;;;;;25.29;88.02;97459.84;6211826;28;99079;-63
2023/10/28 10:39:46;;;;;;;;;2.00;2.00;;;;;25.43;88.24;97460.25;6222168;28;96368;-63
2023/10/28 10:42:49;;;;;;;;;5.00;5.00;;;;;26.42;86.92;97467.53;6209882;28;96664;-63
2023/10/28 10:45:53;;;;;;;;;3.00;2.40;;;;;27.15;74.58;97459.28;6222009;28;96416;-64
2023/10/28 10:48:58;;;;;;;;;3.00;3.00;;;;;27.96;72.61;97469.16;6220476;28;96445;-65
2023/10/28 10:52:03;;;;;;;;;2.40;2.00;;;;;28.27;73.03;97459.81;6217153;28;96755;-65
2023/10/28 10:55:07;;;;;;;;;2.50;2.50;;;;;28.36;66.31;97473.38;6224345;28;97248;-63
2023/10/28 10:58:10;;;;;;;;;1.20;1.20;;;;;28.42;65.96;97496.84;6214681;28;96436;-63
2023/10/28 11:01:13;;;;;;;;;3.00;2.80;;;;;28.25;65.38;97459.38;6220059;28;96881;-63
2023/10/28 11:04:16;;;;;;;;;2.60;2.60;;;;;29.44;60.88;97461.44;6232661;28;96304;-63
2023/10/28 11:07:21;;;;;;;;;2.00;2.00;;;;;30.28;58.27;97469.00;6228666;28;97522;-63
2023/10/28 11:10:24;;;;;;;;;2.00;1.00;;;;;30.36;53.16;97465.09;6227101;28;96562;-64
2023/10/28 11:13:28;;;;;;;;;3.00;3.00;;;;;29.28;55.01;97477.47;6225531;28;98770;-63
2023/10/28 11:16:32;;;;;;;;;1.00;1.00;;;;;28.47;61.08;97479.91;6224762;28;96382;-64
2023/10/28 11:19:36;;;;;;;;;2.00;2.00;;;;;27.04;67.59;97472.09;6221715;28;96426;-64
2023/10/28 11:22:40;;;;;;;;;3.00;3.00;;;;;25.64;77.73;97471.09;6224721;28;98932;-64
2023/10/28 11:25:48;;;;;;;;;2.20;2.20;;;;;24.74;84.43;97474.38;6226170;28;96727;-63
2023/10/28 11:28:52;;;;;;;;;2.00;2.00;;;;;24.50;86.53;97480.72;6227476;28;96531;-62
2023/10/28 11:31:56;;;;;;;;;2.00;2.00;;;;;24.06;90.85;97474.97;6235591;28;96402;-62
2023/10/28 11:35:00;;;;;;;;;3.00;3.00;;;;;23.63;94.05;97483.75;6222913;28;98754;-64
2023/10/28 11:38:06;;;;;;;;;3.00;2.40;;;;;24.07;93.58;97487.59;6225763;28;96838;-64
2023/10/28 11:41:09;;;;;;;;;2.60;2.60;;;;;24.35;88.70;97481.44;6235388;28;96344;-64
2023/10/28 11:44:12;;;;;;;;;3.00;3.00;;;;;24.02;90.73;97490.59;6234079;28;96820;-64
2023/10/28 11:47:17;;;;;;;;;1.40;1.40;;;;;23.42;94.46;97487.66;6233619;28;96903;-62
2023/10/28 11:50:21;;;;;;;;;1.00;1.00;;;;;22.82;97.94;97481.56;6234733;28;96694;-63
2023/10/28 11:53:27;;;;;;;;;2.00;2.00;;;;;22.41;100.00;97474.09;6234713;28;96255;-63
2023/10/28 11:56:31;;;;;;;;;1.00;1.00;;;;;22.06;100.00;97486.38;6236874;27;96525;-64
2023/10/28 11:59:35;;;;;;;;;2.60;2.60;;;;;21.67;100.00;97487.47;6234923;28;96345;-62
2023/10/28 12:02:39;;;;;;;;;2.00;2.00;;;;;21.38;100.00;97488.19;6233949;28;96558;-63
2023/10/28 12:05:44;;;;;;;;;3.00;3.00;;;;;21.47;100.00;97488.97;6235694;27;96494;-62
2023/10/28 12:08:49;;;;;;;;;3.20;2.20;;;;;22.39;100.00;97489.25;6234286;28;97145;-64
2023/10/28 12:11:52;;;;;;;;;4.00;4.00;;;;;22.56;100.00;97499.34;6238419;28;96352;-61
2023/10/28 12:14:57;;;;;;;;;2.75;2.00;;;;;22.70;100.00;97499.91;6238796;28;97533;-63
2023/10/28 12:18:00;;;;;;;;;2.00;2.00;;;;;22.31;100.00;97501.91;6239701;28;96632;-63
2023/10/28 12:21:03;;;;;;;;;3.40;3.40;;;;;21.91;100.00;97508.84;6239103;28;96553;-64
2023/10/28 12:24:11;;;;;;;;;2.67;2.67;;;;;21.43;100.00;97514.63;6221111;28;96974;-63
2023/10/28 12:27:15;;;;;;;;;4.50;3.50;;;;;21.01;100.00;97508.03;6238803;28;96278;-62
2023/10/28 12:30:18;;;;;;;;;3.00;3.00;;;;;20.54;100.00;97515.22;6238694;27;96469;-61
2023/10/28 12:33:22;;;;;;;;;3.40;2.60;;;;;20.06;100.00;97501.53;6238976;28;96534;-62
2023/10/28 12:36:25;;;;;;;;;5.00;5.00;;;;;19.88;100.00;97517.09;6238654;27;97455;-62
2023/10/28 12:39:29;;;;;;;;;5.00;4.40;;;;;19.62;100.00;97533.34;6239460;28;96291;-62
2023/10/28 12:42:34;;;;;;;;;4.40;4.40;;;;;19.39;100.00;97526.28;6241838;28;96364;-71
2023/10/28 12:45:37;;;;;;;;;1.80;1.80;;;;;19.28;100.00;97533.09;6238614;28;96416;-72
2023/10/28 12:48:41;;;;;;;;;3.00;3.00;;;;;19.12;100.00;97529.91;6238809;28;96918;-72
2023/10/28 12:51:44;;;;;;;;;3.80;3.80;;;;;19.17;100.00;97532.53;6219751;28;97601;-71
2023/10/28 12:54:49;;;;;;;;;4.20;3.00;;;;;19.18;100.00;97533.34;6236434;28;98429;-72
2023/10/28 12:57:52;;;;;;;;;6.00;5.00;;;;;19.38;100.00;97541.84;6219680;28;97916;-71
2023/10/28 13:00:55;;;;;;;;;4.20;4.00;;;;;19.35;100.00;97547.16;6237971;28;96490;-71
2023/10/28 13:03:58;;;;;;;;;2.00;2.00;;;;;19.33;100.00;97557.56;6237789;28;96684;-72
2023/10/28 13:07:02;;;;;;;;;5.00;4.60;;;;;19.33;100.00;97544.72;6236431;28;99773;-73
2023/10/28 13:10:10;;;;;;;;;4.00;3.00;;;;;19.19;100.00;97543.97;6238165;28;96975;-72
2023/10/28 13:13:14;;;;;;;;;2.60;2.60;;;;;19.26;100.00;97548.97;6238245;28;96430;-72
2023/10/28 13:16:18;;;;;;;;;3.75;3.75;;;;;19.23;100.00;97541.41;6238016;28;96309;-72
2023/10/28 13:19:21;;;;;;;;;4.60;4.60;;;;;19.23;100.00;97544.16;6236026;28;99009;-72
2023/10/28 13:22:24;;;;;;;;;5.00;5.00;;;;;19.16;100.00;97538.28;6236568;28;96364;-72
2023/10/28 13:25:29;;;;;;;;;6.60;5.60;;;;;19.18;100.00;97544.28;6235612;28;98402;-72
2023/10/28 13:28:32;;;;;;;;;5.00;5.00;;;;;19.14;100.00;97544.09;6218948;28;98599;-72
2023/10/28 13:31:35;;;;;;;;;5.00;4.00;;;;;19.12;100.00;97556.44;6237687;28;96575;-72
2023/10/28 13:34:38;;;;;;;;;2.00;2.00;;;;;19.09;100.00;97557.88;6235565;28;96668;-72
2023/10/28 13:37:41;;;;;;;;;6.00;6.00;;;;;19.09;100.00;97543.41;6237317;28;96383;-72
2023/10/28 13:40:46;;;;;;;;;5.00;4.40;;;;;19.05;100.00;97548.69;6235198;28;96373;-72
2023/10/28 13:43:49;;;;;;;;;3.00;3.00;;;;;18.73;100.00;97505.97;6237585;27;97036;-72
2023/10/28 13:46:52;;;;;;;;;4.20;4.20;;;;;18.97;100.00;97563.06;6236182;28;96317;-72
2023/10/28 13:49:55;;;;;;;;;5.40;5.40;;;;;18.95;100.00;97568.03;6234931;28;96475;-72
2023/10/28 13:52:58;;;;;;;;;6.40;6.00;;;;;18.88;100.00;97579.38;6244005;27;96668;-69
2023/10/28 13:56:04;;;;;;;;;4.50;4.50;;;;;18.80;100.00;97571.09;6250700;28;96954;-70
2023/10/28 13:59:07;;;;;;;;;5.00;5.00;;;;;18.72;100.00;97572.59;6250306;27;96963;-69
2023/10/28 14:02:10;;;;;;;;;4.00;4.00;;;;;18.67;100.00;97580.91;6248990;28;96707;-69
2023/10/28 14:05:14;;;;;;;;;5.40;5.40;;;;;18.54;100.00;97570.81;6250282;27;97283;-69
2023/10/28 14:08:17;;;;;;;;;7.40;6.60;;;;;18.62;100.00;97583.75;6232882;28;96887;-69
2023/10/28 14:11:23;;;;;;;;;5.75;5.00;;;;;18.55;100.00;97583.38;6252264;28;96517;-69
2023/10/28 14:14:27;;;;;;;;;6.00;6.00;;;;;18.52;100.00;97583.94;6233782;28;96653;-70
2023/10/28 14:17:30;;;;;;;;;8.00;7.00;;;;;18.49;100.00;97582.63;6252185;28;97076;-69